createdAt,value
2022-11-18T00:01:13.714Z,98507.63
2022-11-18T00:03:42.464Z,98514.28
2022-11-18T00:06:14.906Z,98509.28
2022-11-18T00:08:42.784Z,98515.16
2022-11-18T00:11:37.736Z,98503.38
2022-11-18T00:14:19.022Z,98500.81
2022-11-18T00:16:56.513Z,98497.59
2022-11-18T00:19:29.712Z,98499.19
2022-11-18T00:21:57.333Z,98504.44
2022-11-18T00:24:25.370Z,98512.69
2022-11-18T00:26:53.186Z,98513.50
2022-11-18T00:29:21.463Z,98499.09
2022-11-18T00:31:49.389Z,98505.91
2022-11-18T00:34:18.427Z,98495.03
2022-11-18T00:36:46.242Z,98499.16
2022-11-18T00:39:15.991Z,98489.16
2022-11-18T00:42:02.333Z,98491.81
2022-11-18T00:44:30.038Z,98490.09
2022-11-18T00:46:57.602Z,98487.97
2022-11-18T00:49:24.979Z,98493.81
2022-11-18T00:51:52.625Z,98490.53
2022-11-18T00:54:20.038Z,98493.03
2022-11-18T00:56:47.398Z,98497.25
2022-11-18T00:59:15.225Z,98495.97
2022-11-18T01:01:43.021Z,98497.19
2022-11-18T01:04:10.399Z,98500.84
2022-11-18T01:06:37.974Z,98504.56
2022-11-18T01:09:05.342Z,98501.50
2022-11-18T01:11:51.282Z,98497.19
2022-11-18T01:14:18.879Z,98482.78
2022-11-18T01:16:51.148Z,98472.12
2022-11-18T01:19:19.724Z,98458.62
2022-11-18T01:21:47.219Z,98457.47
2022-11-18T01:24:14.572Z,98470.16
2022-11-18T01:26:42.275Z,98455.16
2022-11-18T01:29:09.626Z,98448.38
2022-11-18T01:31:50.171Z,98446.87
2022-11-18T01:34:28.231Z,98445.72
2022-11-18T01:36:56.592Z,98447.66
2022-11-18T01:39:24.051Z,98448.88
2022-11-18T01:41:51.895Z,98455.34
2022-11-18T01:44:57.912Z,98461.19
2022-11-18T01:47:35.447Z,98471.31
2022-11-18T01:50:04.587Z,98469.37
2022-11-18T01:52:52.072Z,98462.72
2022-11-18T01:55:24.092Z,98470.47
2022-11-18T01:57:56.443Z,98482.28
2022-11-18T02:00:23.797Z,98479.94
2022-11-18T02:02:51.576Z,98481.47
2022-11-18T02:05:20.279Z,98475.50
2022-11-18T02:07:48.014Z,98478.50
2022-11-18T02:10:21.789Z,98473.59
2022-11-18T02:12:50.917Z,98465.22
2022-11-18T02:15:26.087Z,98459.63
2022-11-18T02:17:58.817Z,98460.66
2022-11-18T02:20:35.192Z,98457.22
2022-11-18T02:23:24.648Z,98440.56
2022-11-18T02:25:51.874Z,98440.44
2022-11-18T02:28:26.146Z,98439.84
2022-11-18T02:31:00.622Z,98441.62
2022-11-18T02:33:40.616Z,98442.34
2022-11-18T02:36:26.172Z,98428.12
2022-11-18T02:39:05.702Z,98427.00
2022-11-18T02:41:34.441Z,98413.06
2022-11-18T02:44:09.550Z,98405.19
2022-11-18T02:46:37.808Z,98393.03
2022-11-18T02:49:10.136Z,98394.16
2022-11-18T02:51:38.056Z,98382.38
2022-11-18T02:54:07.888Z,98386.16
2022-11-18T02:56:35.983Z,98391.41
2022-11-18T02:59:03.953Z,98390.53
2022-11-18T03:01:34.498Z,98398.03
2022-11-18T03:04:02.672Z,98406.03
2022-11-18T03:06:41.000Z,98402.94
2022-11-18T03:09:26.967Z,98412.53
2022-11-18T03:12:14.623Z,98406.09
2022-11-18T03:15:11.605Z,98405.34
2022-11-18T03:17:51.083Z,98412.47
2022-11-18T03:20:25.029Z,98422.41
2022-11-18T03:23:00.995Z,98414.88
2022-11-18T03:25:35.227Z,98417.38
2022-11-18T03:28:17.761Z,98427.59
2022-11-18T03:30:51.152Z,98428.78
2022-11-18T03:33:21.797Z,98435.59
2022-11-18T03:35:51.170Z,98430.63
2022-11-18T03:38:25.071Z,98432.00
2022-11-18T03:40:56.188Z,98426.38
2022-11-18T03:43:26.605Z,98416.91
2022-11-18T03:46:05.908Z,98426.22
2022-11-18T03:48:37.851Z,98427.72
2022-11-18T03:51:11.385Z,98441.94
2022-11-18T03:53:44.859Z,98442.38
2022-11-18T03:56:19.947Z,98432.53
2022-11-18T03:58:50.173Z,98415.06
2022-11-18T04:01:48.170Z,98416.37
2022-11-18T04:04:15.862Z,98405.72
2022-11-18T04:06:49.661Z,98416.66
2022-11-18T04:09:24.008Z,98402.22
2022-11-18T04:12:04.498Z,98406.00
2022-11-18T04:14:35.015Z,98401.00
2022-11-18T04:17:09.478Z,98387.88
2022-11-18T04:19:37.553Z,98365.19
2022-11-18T04:22:04.910Z,98363.22
2022-11-18T04:24:32.369Z,98362.34
2022-11-18T04:27:03.569Z,98358.94
2022-11-18T04:29:31.900Z,98351.06
2022-11-18T04:32:00.236Z,98350.31
2022-11-18T04:34:28.394Z,98356.72
2022-11-18T04:36:55.764Z,98350.31
2022-11-18T04:39:23.359Z,98346.84
2022-11-18T04:41:57.003Z,98346.91
2022-11-18T04:44:29.436Z,98367.28
2022-11-18T04:46:58.408Z,98380.91
2022-11-18T04:49:26.678Z,98384.56
2022-11-18T04:51:54.915Z,98377.44
2022-11-18T04:54:23.641Z,98397.50
2022-11-18T04:56:51.239Z,98400.09
2022-11-18T04:59:21.228Z,98392.53
2022-11-18T05:01:49.727Z,98391.28
2022-11-18T05:04:22.790Z,98388.81
2022-11-18T05:06:50.724Z,98386.69
2022-11-18T05:09:19.103Z,98379.41
2022-11-18T05:12:05.721Z,98367.16
2022-11-18T05:14:33.712Z,98363.31
2022-11-18T05:17:03.134Z,98364.13
2022-11-18T05:19:30.975Z,98358.72
2022-11-18T05:21:59.044Z,98352.06
2022-11-18T05:24:28.188Z,98356.16
2022-11-18T05:26:55.966Z,98358.72
2022-11-18T05:29:23.783Z,98360.06
2022-11-18T05:31:51.288Z,98361.19
2022-11-18T05:34:19.570Z,98362.50
2022-11-18T05:36:47.189Z,98367.72
2022-11-18T05:39:14.625Z,98366.59
2022-11-18T05:42:01.026Z,98357.59
2022-11-18T05:44:28.722Z,98349.50
2022-11-18T05:46:56.671Z,98356.09
2022-11-18T05:49:24.108Z,98369.13
2022-11-18T05:51:51.743Z,98363.31
2022-11-18T05:54:19.505Z,98355.22
2022-11-18T05:56:47.106Z,98362.69
2022-11-18T05:59:16.069Z,98362.53
2022-11-18T06:02:10.663Z,98364.78
2022-11-18T06:04:46.671Z,98376.50
2022-11-18T06:07:18.553Z,98373.78
2022-11-18T06:09:50.393Z,98370.25
2022-11-18T06:12:39.503Z,98370.69
2022-11-18T06:15:19.991Z,98360.72
2022-11-18T06:17:52.449Z,98361.03
2022-11-18T06:20:20.654Z,98352.06
2022-11-18T06:22:54.355Z,98357.72
2022-11-18T06:25:22.959Z,98351.66
2022-11-18T06:27:51.595Z,98349.34
2022-11-18T06:30:19.054Z,98352.59
2022-11-18T06:32:46.653Z,98343.88
2022-11-18T06:35:14.180Z,98345.56
2022-11-18T06:37:41.520Z,98340.91
2022-11-18T06:40:09.770Z,98332.78
2022-11-18T06:42:55.711Z,98338.81
2022-11-18T06:45:23.396Z,98347.87
2022-11-18T06:47:50.999Z,98353.72
2022-11-18T06:50:18.329Z,98357.47
2022-11-18T06:52:45.935Z,98350.00
2022-11-18T06:55:13.333Z,98361.50
2022-11-18T06:57:40.655Z,98358.62
2022-11-18T07:00:08.731Z,98362.53
2022-11-18T07:02:36.668Z,98355.63
2022-11-18T07:05:06.322Z,98361.47
2022-11-18T07:07:41.701Z,98351.16
2022-11-18T07:10:10.209Z,98360.66
2022-11-18T07:12:37.811Z,98369.59
2022-11-18T07:15:05.382Z,98353.44
2022-11-18T07:17:32.855Z,98347.25
2022-11-18T07:20:00.450Z,98340.63
2022-11-18T07:22:27.875Z,98343.50
2022-11-18T07:24:55.197Z,98342.78
2022-11-18T07:27:22.960Z,98335.41
2022-11-18T07:29:50.455Z,98336.12
2022-11-18T07:32:17.776Z,98337.97
2022-11-18T07:34:45.876Z,98336.62
2022-11-18T07:37:13.261Z,98334.38
2022-11-18T07:39:40.588Z,98331.63
2022-11-18T07:42:09.756Z,98331.34
2022-11-18T07:44:37.103Z,98327.03
2022-11-18T07:47:04.626Z,98324.47
2022-11-18T07:49:32.274Z,98322.84
2022-11-18T07:51:59.594Z,98306.56
2022-11-18T07:54:26.917Z,98316.03
2022-11-18T07:56:54.510Z,98322.22
2022-11-18T07:59:21.924Z,98314.88
2022-11-18T08:01:49.360Z,98311.50
2022-11-18T08:04:18.016Z,98327.94
2022-11-18T08:06:45.686Z,98319.75
2022-11-18T08:09:13.018Z,98309.97
2022-11-18T08:11:40.979Z,98320.56
2022-11-18T08:14:08.394Z,98308.16
2022-11-18T08:16:35.746Z,98308.44
2022-11-18T08:19:03.382Z,98309.41
2022-11-18T08:21:30.719Z,98306.81
2022-11-18T08:23:58.559Z,98302.09
2022-11-18T08:26:27.234Z,98302.13
2022-11-18T08:28:55.120Z,98309.69
2022-11-18T08:31:25.424Z,98294.25
2022-11-18T08:34:05.227Z,98299.19
2022-11-18T08:36:35.637Z,98295.06
2022-11-18T08:39:05.492Z,98284.94
2022-11-18T08:41:38.489Z,98284.56
2022-11-18T08:44:07.076Z,98273.59
2022-11-18T08:46:34.435Z,98272.94
2022-11-18T08:49:01.893Z,98273.94
2022-11-18T08:51:29.740Z,98270.28
2022-11-18T08:53:57.276Z,98257.31
2022-11-18T08:56:25.541Z,98254.38
2022-11-18T08:58:53.284Z,98255.16
2022-11-18T09:01:20.823Z,98262.91
2022-11-18T09:03:48.965Z,98269.63
2022-11-18T09:06:19.075Z,98266.50
2022-11-18T09:08:46.833Z,98280.56
2022-11-18T09:11:19.609Z,98279.69
2022-11-18T09:14:26.035Z,98281.34
2022-11-18T09:16:35.615Z,98285.91
2022-11-18T09:19:24.399Z,98273.50
2022-11-18T09:21:50.765Z,98270.87
2022-11-18T09:24:18.523Z,98264.66
2022-11-18T09:26:46.144Z,98267.69
2022-11-18T09:29:13.488Z,98257.38
2022-11-18T09:31:41.140Z,98246.53
2022-11-18T09:34:10.346Z,98243.38
2022-11-18T09:36:37.809Z,98249.38
2022-11-18T09:39:05.564Z,98247.69
2022-11-18T09:42:01.205Z,98232.53
2022-11-18T09:44:51.192Z,98238.66
2022-11-18T09:47:31.672Z,98241.37
2022-11-18T09:50:33.849Z,98249.44
2022-11-18T09:53:19.287Z,98235.56
2022-11-18T09:55:48.180Z,98216.00
2022-11-18T09:58:19.674Z,98211.94
2022-11-18T10:00:47.369Z,98201.00
2022-11-18T10:03:22.798Z,98198.72
2022-11-18T10:06:09.783Z,98196.00
2022-11-18T10:08:40.222Z,98190.97
2022-11-18T10:11:10.542Z,98184.31
2022-11-18T10:13:59.784Z,98182.59
2022-11-18T10:16:46.571Z,98198.25
2022-11-18T10:19:32.359Z,98199.00
2022-11-18T10:22:24.984Z,98194.66
2022-11-18T10:24:54.695Z,98195.31
2022-11-18T10:27:23.399Z,98196.19
2022-11-18T10:29:57.231Z,98188.91
2022-11-18T10:32:25.230Z,98186.06
2022-11-18T10:34:57.347Z,98189.66
2022-11-18T10:37:52.556Z,98178.81
2022-11-18T10:40:28.023Z,98182.97
2022-11-18T10:42:55.999Z,98185.03
2022-11-18T10:45:23.176Z,98181.00
2022-11-18T10:47:58.724Z,98182.34
2022-11-18T10:50:28.743Z,98170.47
2022-11-18T10:52:56.147Z,98170.34
2022-11-18T10:55:25.100Z,98169.13
2022-11-18T10:58:08.183Z,98172.41
2022-11-18T11:00:44.006Z,98175.50
2022-11-18T11:03:22.295Z,98171.13
2022-11-18T11:06:13.128Z,98173.13
2022-11-18T11:08:54.755Z,98169.19
2022-11-18T11:11:31.108Z,98184.22
2022-11-18T11:14:21.732Z,98183.47
2022-11-18T11:17:11.257Z,98189.66
2022-11-18T11:20:06.351Z,98189.88
2022-11-18T11:22:33.847Z,98189.03
2022-11-18T11:25:11.302Z,98198.16
2022-11-18T11:30:27.425Z,98198.00
2022-11-18T11:33:20.738Z,98191.59
2022-11-18T11:36:02.531Z,98187.91
2022-11-18T11:39:09.805Z,98184.78
2022-11-18T11:41:59.915Z,98181.78
2022-11-18T11:44:40.740Z,98178.75
2022-11-18T11:47:49.949Z,98175.53
2022-11-18T11:50:22.274Z,98176.03
2022-11-18T11:53:25.118Z,98188.22
2022-11-18T11:56:19.668Z,98178.94
2022-11-18T11:58:56.032Z,98171.31
2022-11-18T12:01:31.931Z,98172.13
2022-11-18T12:04:24.125Z,98170.72
2022-11-18T12:06:53.547Z,98180.63
2022-11-18T12:09:33.628Z,98178.13
2022-11-18T12:12:27.106Z,98175.09
2022-11-18T12:14:58.023Z,98178.84
2022-11-18T12:17:30.880Z,98172.69
2022-11-18T12:19:58.504Z,98170.72
2022-11-18T12:23:04.348Z,98162.25
2022-11-18T12:25:51.415Z,98147.38
2022-11-18T12:28:33.881Z,98148.75
2022-11-18T12:31:19.768Z,98135.88
2022-11-18T12:33:47.672Z,98125.63
2022-11-18T12:36:28.926Z,98127.28
2022-11-18T12:38:57.187Z,98132.75
2022-11-18T12:41:58.729Z,98125.59
2022-11-18T12:44:28.016Z,98131.44
2022-11-18T12:46:59.634Z,98129.09
2022-11-18T12:49:26.931Z,98140.87
2022-11-18T12:55:33.356Z,98138.63
2022-11-18T12:58:01.193Z,98139.47
2022-11-18T13:00:31.641Z,98145.41
2022-11-18T13:03:01.377Z,98151.44
2022-11-18T13:05:31.141Z,98163.47
2022-11-18T13:08:18.438Z,98160.97
2022-11-18T13:10:55.952Z,98175.69
2022-11-18T13:13:33.510Z,98171.44
2022-11-18T13:16:37.869Z,98190.00
2022-11-18T13:19:06.014Z,98183.16
2022-11-18T13:21:52.618Z,98178.50
2022-11-18T13:24:21.915Z,98181.78
2022-11-18T13:26:54.788Z,98184.03
2022-11-18T13:29:40.861Z,98189.25
2022-11-18T13:32:23.459Z,98193.84
2022-11-18T13:34:59.255Z,98199.69
2022-11-18T13:37:31.630Z,98191.78
2022-11-18T13:39:59.010Z,98192.25
2022-11-18T13:42:31.252Z,98193.94
2022-11-18T13:45:00.211Z,98188.94
2022-11-18T13:47:48.198Z,98190.94
2022-11-18T13:50:24.387Z,98197.59
2022-11-18T13:53:07.127Z,98190.12
2022-11-18T13:55:38.515Z,98192.59
2022-11-18T13:58:18.331Z,98183.12
2022-11-18T14:01:03.684Z,98181.34
2022-11-18T14:03:54.494Z,98173.41
2022-11-18T14:06:36.023Z,98177.91
2022-11-18T14:09:10.621Z,98172.00
2022-11-18T14:11:40.830Z,98175.12
2022-11-18T14:14:10.411Z,98178.56
2022-11-18T14:16:40.416Z,98183.56
2022-11-18T14:19:30.496Z,98194.37
2022-11-18T14:22:13.403Z,98197.84
2022-11-18T14:24:42.107Z,98192.09
2022-11-18T14:27:38.593Z,98192.63
2022-11-18T14:30:33.729Z,98195.72
2022-11-18T14:33:18.119Z,98197.50
2022-11-18T14:35:50.782Z,98194.75
2022-11-18T14:41:13.946Z,98191.84
2022-11-18T14:43:43.610Z,98186.75
2022-11-18T14:46:18.598Z,98187.97
2022-11-18T14:48:46.465Z,98195.09
2022-11-18T14:51:14.749Z,98188.38
2022-11-18T14:53:42.957Z,98189.38
2022-11-18T14:56:30.803Z,98184.75
2022-11-18T14:58:58.341Z,98192.88
2022-11-18T15:01:30.482Z,98185.53
2022-11-18T15:03:58.510Z,98180.63
2022-11-18T15:06:26.900Z,98186.75
2022-11-18T15:08:54.520Z,98185.66
2022-11-18T15:11:21.994Z,98190.72
2022-11-18T15:13:49.878Z,98192.56
2022-11-18T15:16:21.702Z,98186.91
2022-11-18T15:18:53.199Z,98184.31
2022-11-18T15:21:21.903Z,98190.16
2022-11-18T15:23:49.541Z,98192.47
2022-11-18T15:26:21.314Z,98195.09
2022-11-18T15:28:50.355Z,98200.34
2022-11-18T15:31:18.257Z,98207.75
2022-11-18T15:33:49.516Z,98202.56
2022-11-18T15:36:19.468Z,98194.63
2022-11-18T15:38:47.636Z,98207.81
2022-11-18T15:41:21.105Z,98205.41
2022-11-18T15:43:49.442Z,98205.22
2022-11-18T15:46:19.388Z,98205.62
2022-11-18T15:48:48.457Z,98205.88
2022-11-18T15:51:16.417Z,98199.63
2022-11-18T15:53:43.883Z,98216.22
2022-11-18T15:56:20.759Z,98208.91
2022-11-18T15:59:02.474Z,98214.06
2022-11-18T16:01:32.287Z,98212.28
2022-11-18T16:04:00.207Z,98208.91
2022-11-18T16:06:27.738Z,98218.94
2022-11-18T16:08:59.519Z,98220.94
2022-11-18T16:11:47.671Z,98229.44
2022-11-18T16:14:18.033Z,98232.75
2022-11-18T16:16:47.270Z,98230.88
2022-11-18T16:19:17.378Z,98225.56
2022-11-18T16:21:47.539Z,98219.88
2022-11-18T16:24:23.627Z,98229.00
2022-11-18T16:26:51.097Z,98222.12
2022-11-18T16:29:19.476Z,98213.44
2022-11-18T16:31:52.108Z,98215.94
2022-11-18T16:34:24.316Z,98219.31
2022-11-18T16:36:53.845Z,98234.22
2022-11-18T16:39:25.031Z,98237.66
2022-11-18T16:42:03.757Z,98245.69
2022-11-18T16:44:35.795Z,98247.25
2022-11-18T16:47:06.481Z,98248.94
2022-11-18T16:49:38.399Z,98246.97
2022-11-18T16:52:07.243Z,98249.59
2022-11-18T16:54:37.137Z,98256.47
2022-11-18T16:57:07.348Z,98254.25
2022-11-18T16:59:35.113Z,98250.03
2022-11-18T17:02:03.228Z,98252.31
2022-11-18T17:04:31.634Z,98258.22
2022-11-18T17:07:03.475Z,98262.56
2022-11-18T17:09:31.915Z,98264.06
2022-11-18T17:11:59.329Z,98263.53
2022-11-18T17:14:26.791Z,98273.56
2022-11-18T17:16:54.759Z,98272.69
2022-11-18T17:19:24.040Z,98277.81
2022-11-18T17:21:52.281Z,98280.13
2022-11-18T17:24:22.257Z,98276.63
2022-11-18T17:26:52.015Z,98285.87
2022-11-18T17:29:20.083Z,98287.84
2022-11-18T17:31:47.698Z,98283.91
2022-11-18T17:34:16.018Z,98284.59
2022-11-18T17:36:44.089Z,98275.00
2022-11-18T17:39:13.653Z,98277.94
2022-11-18T17:41:59.926Z,98286.94
2022-11-18T17:44:28.637Z,98288.72
2022-11-18T17:46:57.211Z,98297.94
2022-11-18T17:49:24.980Z,98298.41
2022-11-18T17:51:52.750Z,98301.75
2022-11-18T17:54:21.770Z,98304.53
2022-11-18T17:56:52.356Z,98290.38
2022-11-18T17:59:21.201Z,98297.44
2022-11-18T18:01:52.867Z,98299.03
2022-11-18T18:04:23.854Z,98307.44
2022-11-18T18:06:53.888Z,98311.16
2022-11-18T18:09:26.997Z,98314.78
2022-11-18T18:11:59.943Z,98307.59
2022-11-18T18:14:27.419Z,98317.50
2022-11-18T18:16:55.071Z,98322.66
2022-11-18T18:19:23.426Z,98325.50
2022-11-18T18:21:53.763Z,98324.09
2022-11-18T18:24:22.118Z,98323.69
2022-11-18T18:26:51.021Z,98332.97
2022-11-18T18:29:19.641Z,98338.72
2022-11-18T18:31:47.322Z,98342.31
2022-11-18T18:34:15.203Z,98340.09
2022-11-18T18:36:43.351Z,98337.13
2022-11-18T18:39:11.483Z,98347.25
2022-11-18T18:41:39.412Z,98347.31
2022-11-18T18:44:06.865Z,98340.59
2022-11-18T18:46:34.978Z,98349.00
2022-11-18T18:49:06.598Z,98352.56
2022-11-18T18:51:45.283Z,98360.97
2022-11-18T18:54:16.173Z,98361.59
2022-11-18T18:56:44.872Z,98361.72
2022-11-18T18:59:13.292Z,98359.31
2022-11-18T19:01:41.481Z,98364.03
2022-11-18T19:04:12.421Z,98371.72
2022-11-18T19:07:00.198Z,98360.44
2022-11-18T19:09:28.931Z,98367.66
2022-11-18T19:12:16.142Z,98379.81
2022-11-18T19:14:44.405Z,98385.66
2022-11-18T19:17:13.797Z,98389.84
2022-11-18T19:20:03.296Z,98399.91
2022-11-18T19:22:32.303Z,98399.84
2022-11-18T19:25:00.638Z,98400.00
2022-11-18T19:27:29.153Z,98404.78
2022-11-18T19:29:57.375Z,98413.50
2022-11-18T19:32:25.495Z,98416.16
2022-11-18T19:34:52.963Z,98409.97
2022-11-18T19:37:21.162Z,98412.44
2022-11-18T19:39:49.054Z,98417.59
2022-11-18T19:42:16.612Z,98425.59
2022-11-18T19:44:44.683Z,98431.25
2022-11-18T19:47:12.658Z,98438.19
2022-11-18T19:49:40.596Z,98445.66
2022-11-18T19:52:08.879Z,98445.41
2022-11-18T19:54:36.696Z,98451.06
2022-11-18T19:57:04.376Z,98455.13
2022-11-18T19:59:32.552Z,98478.47
2022-11-18T20:02:00.705Z,98481.97
2022-11-18T20:04:28.855Z,98475.22
2022-11-18T20:06:57.909Z,98485.22
2022-11-18T20:09:25.643Z,98474.75
2022-11-18T20:11:53.508Z,98489.03
2022-11-18T20:14:21.487Z,98477.69
2022-11-18T20:16:52.155Z,98484.41
2022-11-18T20:19:20.331Z,98486.50
2022-11-18T20:21:48.873Z,98499.06
2022-11-18T20:24:17.542Z,98507.94
2022-11-18T20:26:45.570Z,98510.00
2022-11-18T20:29:14.011Z,98522.75
2022-11-18T20:31:41.914Z,98527.31
2022-11-18T20:34:12.928Z,98526.56
2022-11-18T20:36:41.096Z,98536.59
2022-11-18T20:39:13.630Z,98532.84
2022-11-18T20:41:42.081Z,98537.03
2022-11-18T20:44:09.798Z,98543.25
2022-11-18T20:46:38.117Z,98556.94
2022-11-18T20:49:06.184Z,98558.31
2022-11-18T20:51:33.799Z,98555.44
2022-11-18T20:54:02.779Z,98564.50
2022-11-18T20:56:30.940Z,98571.75
2022-11-18T20:58:58.643Z,98572.62
2022-11-18T21:01:28.092Z,98591.16
2022-11-18T21:03:57.768Z,98592.09
2022-11-18T21:06:30.496Z,98591.84
2022-11-18T21:09:03.260Z,98606.78
2022-11-18T21:11:34.177Z,98604.66
2022-11-18T21:14:24.740Z,98613.69
2022-11-18T21:17:03.190Z,98615.34
2022-11-18T21:19:33.200Z,98617.62
2022-11-18T21:22:00.959Z,98631.22
2022-11-18T21:24:33.617Z,98628.78
2022-11-18T21:27:02.672Z,98632.16
2022-11-18T21:29:32.370Z,98639.09
2022-11-18T21:32:01.504Z,98639.50
2022-11-18T21:34:29.598Z,98652.50
2022-11-18T21:36:56.956Z,98663.81
2022-11-18T21:39:25.207Z,98661.88
2022-11-18T21:41:56.155Z,98669.63
2022-11-18T21:44:24.959Z,98679.06
2022-11-18T21:46:52.602Z,98683.81
2022-11-18T21:49:20.203Z,98689.56
2022-11-18T21:51:47.805Z,98684.63
2022-11-18T21:54:18.065Z,98682.06
2022-11-18T21:56:45.449Z,98690.75
2022-11-18T21:59:13.000Z,98696.97
2022-11-18T22:01:40.648Z,98684.84
2022-11-18T22:04:28.607Z,98693.59
2022-11-18T22:06:55.941Z,98690.84
2022-11-18T22:09:23.717Z,98696.81
2022-11-18T22:11:51.039Z,98690.78
2022-11-18T22:14:18.356Z,98693.34
2022-11-18T22:16:45.932Z,98695.47
2022-11-18T22:19:13.290Z,98699.84
2022-11-18T22:21:40.655Z,98699.16
2022-11-18T22:24:08.797Z,98707.44
2022-11-18T22:26:36.150Z,98712.56
2022-11-18T22:29:03.454Z,98717.38
2022-11-18T22:31:31.109Z,98713.31
2022-11-18T22:33:58.534Z,98727.25
2022-11-18T22:36:26.682Z,98719.69
2022-11-18T22:38:55.053Z,98724.25
2022-11-18T22:41:46.097Z,98724.78
2022-11-18T22:44:15.822Z,98735.75
2022-11-18T22:46:44.335Z,98740.66
2022-11-18T22:49:12.384Z,98751.09
2022-11-18T22:51:40.532Z,98755.22
2022-11-18T22:54:38.399Z,98755.31
2022-11-18T22:56:56.530Z,98745.03
2022-11-18T22:59:24.226Z,98744.31
2022-11-18T23:01:51.956Z,98747.62
2022-11-18T23:04:19.941Z,98759.00
2022-11-18T23:06:48.518Z,98749.38
2022-11-18T23:09:17.001Z,98756.25
2022-11-18T23:12:03.801Z,98758.28
2022-11-18T23:14:31.529Z,98755.00
2022-11-18T23:16:59.337Z,98753.78
2022-11-18T23:19:26.667Z,98759.53
2022-11-18T23:21:53.982Z,98751.53
2022-11-18T23:24:21.717Z,98749.25
2022-11-18T23:26:49.241Z,98757.56
2022-11-18T23:29:17.171Z,98762.19
2022-11-18T23:31:45.411Z,98766.16
2022-11-18T23:34:14.611Z,98773.72
2022-11-18T23:36:42.368Z,98781.00
2022-11-18T23:39:10.036Z,98787.63
2022-11-18T23:41:37.472Z,98797.03
2022-11-18T23:44:05.521Z,98794.00
2022-11-18T23:46:33.631Z,98803.03
2022-11-18T23:49:01.054Z,98799.38
2022-11-18T23:51:28.529Z,98801.56
2022-11-18T23:53:57.389Z,98810.25
2022-11-18T23:56:26.790Z,98803.34
2022-11-18T23:58:55.870Z,98802.34
